createdAt,value
2023-04-26T04:01:58.653Z,99.90
2023-04-26T04:04:30.394Z,99.90
2023-04-26T04:07:02.105Z,99.90
2023-04-26T04:09:33.862Z,99.90
2023-04-26T04:12:05.768Z,99.90
2023-04-26T04:14:37.428Z,99.90
2023-04-26T04:17:10.569Z,99.90
2023-04-26T04:19:42.232Z,99.90
2023-04-26T04:22:13.926Z,99.90
2023-04-26T04:24:45.650Z,99.90
2023-04-26T04:27:17.396Z,99.90
2023-04-26T04:29:49.092Z,99.90
2023-04-26T04:32:22.332Z,99.90
2023-04-26T04:34:54.012Z,99.90
2023-04-26T04:37:25.759Z,99.90
2023-04-26T04:39:57.671Z,99.90
2023-04-26T04:42:29.439Z,99.90
2023-04-26T04:45:01.152Z,99.90
2023-04-26T04:47:34.330Z,99.90
2023-04-26T04:50:07.480Z,99.90
2023-04-26T04:52:39.157Z,99.90
2023-04-26T04:57:43.178Z,99.90
2023-04-26T05:00:16.279Z,99.90
2023-04-26T05:02:49.509Z,99.90
2023-04-26T05:05:21.265Z,99.90
2023-04-26T05:07:52.960Z,99.90
2023-04-26T05:10:24.635Z,99.90
2023-04-26T05:12:56.358Z,99.90
2023-04-26T05:15:28.020Z,99.90
2023-04-26T05:18:01.188Z,99.90
2023-04-26T05:20:33.080Z,99.90
2023-04-26T05:23:04.813Z,99.90
2023-04-26T05:25:37.478Z,99.90
2023-04-26T05:28:09.180Z,99.90
2023-04-26T05:30:40.864Z,99.90
2023-04-26T05:33:13.984Z,99.90
2023-04-26T05:35:45.684Z,99.90
2023-04-26T05:38:17.442Z,99.90
2023-04-26T05:40:49.123Z,99.90
2023-04-26T05:43:21.093Z,99.90
2023-04-26T05:45:52.936Z,99.90
2023-04-26T05:48:26.110Z,99.90
2023-04-26T05:50:57.774Z,52.20
2023-04-26T05:53:29.476Z,64.50
2023-04-26T05:56:01.146Z,35.20
2023-04-26T05:58:32.834Z,24.70
2023-04-26T06:01:04.554Z,20.30
2023-04-26T06:03:37.945Z,9.30
2023-04-26T06:06:09.746Z,6.80
2023-04-26T06:08:42.442Z,12.50
2023-04-26T06:11:14.150Z,5.50
2023-04-26T06:13:45.834Z,10.80
2023-04-26T06:16:17.599Z,7.90
2023-04-26T06:18:50.645Z,1.40
2023-04-26T06:21:22.321Z,1.10
2023-04-26T06:23:54.195Z,1.00
2023-04-26T06:26:26.145Z,1.00
2023-04-26T06:28:57.810Z,5.20
2023-04-26T06:31:29.518Z,1.00
2023-04-26T06:34:02.552Z,1.00
2023-04-26T06:36:34.254Z,1.00
2023-04-26T06:39:05.942Z,1.00
2023-04-26T06:41:37.638Z,7.70
2023-04-26T06:44:09.295Z,1.00
2023-04-26T06:46:41.066Z,4.30
2023-04-26T06:49:14.171Z,3.30
2023-04-26T06:51:45.873Z,14.90
2023-04-26T06:56:49.669Z,18.90
2023-04-26T06:59:21.385Z,13.40
2023-04-26T07:01:53.191Z,20.90
2023-04-26T07:04:26.425Z,8.40
2023-04-26T07:09:30.526Z,1.00
2023-04-26T07:12:02.223Z,1.00
2023-04-26T07:14:33.874Z,12.10
2023-04-26T07:17:05.529Z,23.00
2023-04-26T07:19:38.589Z,20.90
2023-04-26T07:22:10.276Z,27.60
2023-04-26T07:24:41.921Z,24.60
2023-04-26T07:27:13.657Z,17.00
2023-04-26T07:29:45.338Z,16.30
2023-04-26T07:32:17.198Z,29.60
2023-04-26T07:34:50.346Z,28.40
2023-04-26T07:37:22.050Z,17.70
2023-04-26T07:39:53.735Z,18.90
2023-04-26T07:42:25.477Z,6.90
2023-04-26T07:44:57.160Z,4.10
2023-04-26T07:47:28.856Z,5.90
2023-04-26T07:50:01.935Z,12.90
2023-04-26T07:52:34.188Z,8.40
2023-04-26T07:55:06.786Z,12.50
2023-04-26T07:57:38.472Z,17.00
2023-04-26T08:00:11.282Z,30.00
2023-04-26T08:02:45.371Z,27.00
2023-04-26T08:05:19.268Z,36.00
2023-04-26T08:07:51.109Z,26.90
2023-04-26T08:10:22.937Z,26.70
2023-04-26T08:12:54.705Z,25.80
2023-04-26T08:15:26.410Z,31.30
2023-04-26T08:17:58.149Z,27.40
2023-04-26T08:20:31.311Z,29.80
2023-04-26T08:23:02.981Z,29.80
2023-04-26T08:25:34.683Z,27.60
2023-04-26T08:28:06.366Z,26.90
2023-04-26T08:30:38.104Z,16.80
2023-04-26T08:33:09.979Z,19.20
2023-04-26T08:35:43.071Z,12.80
2023-04-26T08:38:14.766Z,14.10
2023-04-26T08:40:46.979Z,11.40
2023-04-26T08:43:18.667Z,4.90
2023-04-26T08:45:50.341Z,1.00
2023-04-26T08:48:22.036Z,5.70
2023-04-26T08:50:55.086Z,7.90
2023-04-26T08:53:26.783Z,7.70
2023-04-26T08:58:30.537Z,9.40
2023-04-26T09:01:02.205Z,24.00
2023-04-26T09:03:34.036Z,15.20
2023-04-26T09:06:07.887Z,19.10
2023-04-26T09:08:39.778Z,16.40
2023-04-26T09:11:11.449Z,15.10
2023-04-26T09:13:43.158Z,11.50
2023-04-26T09:16:14.902Z,8.60
2023-04-26T09:18:50.112Z,13.90
2023-04-26T09:21:23.153Z,10.50
2023-04-26T09:23:58.150Z,11.30
2023-04-26T09:26:29.826Z,10.90
2023-04-26T09:29:17.368Z,10.60
2023-04-26T09:31:50.158Z,7.60
2023-04-26T09:34:22.014Z,18.40
2023-04-26T09:36:55.640Z,15.10
2023-04-26T09:39:31.514Z,19.00
2023-04-26T09:42:03.669Z,18.30
2023-04-26T09:44:35.536Z,16.00
2023-04-26T09:47:08.293Z,18.60
2023-04-26T09:49:46.965Z,15.20
2023-04-26T09:52:19.991Z,17.40
2023-04-26T09:54:52.337Z,14.50
2023-04-26T09:57:24.051Z,13.80
2023-04-26T09:59:55.881Z,15.00
2023-04-26T10:02:27.880Z,8.00
2023-04-26T10:04:59.974Z,10.00
2023-04-26T10:07:33.253Z,10.10
2023-04-26T10:10:05.858Z,11.00
2023-04-26T10:12:37.556Z,14.70
2023-04-26T10:15:10.372Z,8.20
2023-04-26T10:17:42.082Z,4.50
2023-04-26T10:20:13.853Z,3.00
2023-04-26T10:22:50.936Z,1.70
2023-04-26T10:25:22.723Z,1.00
2023-04-26T10:27:54.414Z,1.00
2023-04-26T10:30:26.084Z,1.00
2023-04-26T10:33:12.716Z,1.00
2023-04-26T10:36:10.063Z,1.00
2023-04-26T10:39:04.774Z,1.00
2023-04-26T10:41:36.754Z,1.00
2023-04-26T10:44:42.657Z,1.00
2023-04-26T10:47:25.609Z,1.00
2023-04-26T10:50:05.797Z,1.00
2023-04-26T10:52:38.735Z,1.00
2023-04-26T10:55:11.748Z,1.00
2023-04-26T10:57:50.310Z,1.00
2023-04-26T11:00:32.031Z,1.00
2023-04-26T11:03:05.935Z,1.00
2023-04-26T11:05:53.283Z,1.00
2023-04-26T11:08:26.133Z,1.00
2023-04-26T11:11:05.335Z,1.00
2023-04-26T11:13:37.540Z,1.00
2023-04-26T11:16:09.864Z,1.00
2023-04-26T11:18:42.238Z,1.00
2023-04-26T11:21:13.947Z,1.00
2023-04-26T11:23:53.118Z,1.00
2023-04-26T11:26:32.392Z,1.00
2023-04-26T11:29:04.077Z,1.00
2023-04-26T11:31:35.804Z,1.00
2023-04-26T11:34:07.534Z,1.00
2023-04-26T11:36:39.243Z,1.00
2023-04-26T11:39:12.496Z,1.00
2023-04-26T11:41:46.796Z,1.00
2023-04-26T11:44:18.784Z,1.00
2023-04-26T11:46:50.530Z,1.00
2023-04-26T11:49:22.244Z,1.00
2023-04-26T11:51:53.940Z,1.00
2023-04-26T11:54:28.619Z,1.00
2023-04-26T11:57:01.646Z,1.00
2023-04-26T11:59:33.353Z,1.00
2023-04-26T12:02:06.025Z,1.00
2023-04-26T12:04:38.065Z,1.00
2023-04-26T12:07:09.928Z,1.00
2023-04-26T12:09:41.642Z,1.00
2023-04-26T12:12:14.702Z,1.00
2023-04-26T12:14:47.110Z,1.00
2023-04-26T12:17:18.892Z,1.00
2023-04-26T12:19:50.604Z,1.00
2023-04-26T12:22:22.279Z,1.00
2023-04-26T12:25:04.268Z,1.00
2023-04-26T12:27:37.344Z,1.00
2023-04-26T12:30:09.789Z,1.00
2023-04-26T12:32:41.554Z,1.00
2023-04-26T12:35:13.286Z,1.00
2023-04-26T12:37:44.989Z,1.00
2023-04-26T12:40:16.660Z,1.00
2023-04-26T12:42:49.918Z,1.00
2023-04-26T12:45:21.828Z,1.00
2023-04-26T12:47:53.538Z,1.00
2023-04-26T12:50:25.367Z,1.00
2023-04-26T12:52:57.084Z,1.00
2023-04-26T12:58:05.547Z,1.00
2023-04-26T13:00:37.233Z,1.00
2023-04-26T13:05:41.289Z,1.00
2023-04-26T13:08:13.194Z,1.00
2023-04-26T13:10:44.995Z,1.00
2023-04-26T13:13:19.152Z,1.00
2023-04-26T13:15:51.009Z,1.00
2023-04-26T13:18:22.725Z,1.00
2023-04-26T13:20:54.389Z,1.60
2023-04-26T13:23:26.104Z,1.00
2023-04-26T13:25:57.792Z,1.00
2023-04-26T13:28:30.830Z,1.00
2023-04-26T13:31:02.733Z,1.00
2023-04-26T13:33:34.500Z,14.70
2023-04-26T13:36:06.597Z,1.00
2023-04-26T13:38:38.280Z,4.20
2023-04-26T13:41:10.152Z,1.00
2023-04-26T13:43:43.176Z,1.00
2023-04-26T13:46:14.923Z,1.00
2023-04-26T13:48:46.614Z,1.00
2023-04-26T13:51:18.279Z,1.00
2023-04-26T13:53:51.004Z,1.00
2023-04-26T13:56:24.548Z,1.00
2023-04-26T13:58:59.255Z,1.00
2023-04-26T14:01:31.032Z,1.00
2023-04-26T14:04:03.503Z,1.00
2023-04-26T14:06:35.376Z,1.00
2023-04-26T14:09:07.062Z,1.00
2023-04-26T14:11:38.762Z,1.00
2023-04-26T14:14:11.802Z,1.00
2023-04-26T14:16:43.701Z,1.00
2023-04-26T14:19:16.390Z,1.00
2023-04-26T14:21:48.114Z,9.40
2023-04-26T14:24:19.844Z,1.00
2023-04-26T14:26:51.568Z,7.20
2023-04-26T14:29:24.592Z,4.40
2023-04-26T14:31:56.306Z,1.80
2023-04-26T14:34:27.968Z,5.80
2023-04-26T14:36:59.637Z,2.80
2023-04-26T14:39:31.314Z,5.40
2023-04-26T14:42:03.171Z,4.20
2023-04-26T14:44:36.194Z,5.10
2023-04-26T14:47:07.859Z,4.30
2023-04-26T14:49:39.515Z,5.70
2023-04-26T14:52:11.243Z,1.00
2023-04-26T14:54:42.951Z,1.00
2023-04-26T14:57:14.636Z,1.00
2023-04-26T14:59:47.682Z,1.00
2023-04-26T15:02:19.452Z,1.00
2023-04-26T15:04:51.265Z,1.00
2023-04-26T15:07:31.233Z,1.00
2023-04-26T15:10:04.766Z,1.00
2023-04-26T15:12:36.476Z,1.00
2023-04-26T15:15:10.387Z,1.00
2023-04-26T15:17:42.133Z,1.00
2023-04-26T15:20:14.036Z,1.00
2023-04-26T15:22:45.735Z,1.00
2023-04-26T15:25:17.549Z,1.00
2023-04-26T15:27:49.244Z,1.00
2023-04-26T15:30:22.496Z,1.00
2023-04-26T15:32:54.231Z,1.00
2023-04-26T15:35:26.069Z,1.00
2023-04-26T15:37:57.745Z,1.00
2023-04-26T15:40:29.398Z,1.00
2023-04-26T15:43:01.088Z,1.00
2023-04-26T15:45:34.724Z,1.00
2023-04-26T15:48:06.810Z,1.40
2023-04-26T15:50:38.567Z,4.40
2023-04-26T15:53:10.249Z,5.50
2023-04-26T15:55:41.906Z,8.60
2023-04-26T15:58:13.641Z,6.90
2023-04-26T16:00:46.763Z,6.40
2023-04-26T16:03:18.779Z,4.50
2023-04-26T16:05:50.807Z,1.00
2023-04-26T16:08:39.565Z,10.20
2023-04-26T16:11:11.942Z,9.00
2023-04-26T16:13:43.620Z,4.60
2023-04-26T16:16:18.779Z,4.00
2023-04-26T16:18:51.822Z,3.00
2023-04-26T16:21:23.491Z,3.90
2023-04-26T16:23:55.161Z,7.70
2023-04-26T16:26:26.864Z,5.80
2023-04-26T16:28:58.553Z,7.10
2023-04-26T16:31:30.357Z,7.70
2023-04-26T16:34:03.447Z,3.90
2023-04-26T16:36:35.133Z,2.30
2023-04-26T16:39:06.766Z,1.00
2023-04-26T16:41:38.434Z,1.00
2023-04-26T16:44:10.095Z,3.70
2023-04-26T16:46:41.820Z,1.00
2023-04-26T16:49:14.873Z,1.00
2023-04-26T16:51:46.623Z,1.50
2023-04-26T16:54:18.287Z,2.00
2023-04-26T16:56:49.959Z,1.00
2023-04-26T16:59:21.672Z,1.00
2023-04-26T17:01:53.408Z,1.00
2023-04-26T17:04:26.620Z,1.00
2023-04-26T17:06:58.392Z,1.00
2023-04-26T17:09:30.039Z,1.00
2023-04-26T17:12:01.765Z,1.00
2023-04-26T17:14:33.537Z,3.20
2023-04-26T17:17:05.229Z,4.70
2023-04-26T17:19:38.229Z,3.20
2023-04-26T17:22:09.911Z,2.80
2023-04-26T17:24:41.644Z,2.40
2023-04-26T17:27:13.319Z,1.90
2023-04-26T17:29:44.965Z,3.00
2023-04-26T17:32:16.639Z,3.40
2023-04-26T17:34:49.654Z,2.40
2023-04-26T17:37:21.524Z,4.50
2023-04-26T17:39:53.196Z,3.70
2023-04-26T17:42:24.960Z,5.10
2023-04-26T17:44:56.608Z,7.50
2023-04-26T17:47:28.334Z,10.30
2023-04-26T17:50:01.382Z,10.60
2023-04-26T17:52:33.141Z,13.00
2023-04-26T17:55:05.258Z,15.20
2023-04-26T17:57:36.945Z,12.90
2023-04-26T18:00:09.685Z,14.00
2023-04-26T18:02:41.458Z,15.70
2023-04-26T18:05:15.071Z,16.20
2023-04-26T18:07:46.768Z,20.60
2023-04-26T18:10:18.423Z,19.60
2023-04-26T18:12:50.126Z,21.80
2023-04-26T18:15:21.958Z,21.30
2023-04-26T18:17:53.699Z,24.10
2023-04-26T18:20:26.780Z,27.30
2023-04-26T18:22:58.475Z,27.70
2023-04-26T18:25:30.159Z,29.00
2023-04-26T18:28:01.802Z,26.80
2023-04-26T18:30:33.483Z,29.80
2023-04-26T18:33:05.266Z,32.10
2023-04-26T18:35:38.306Z,36.80
2023-04-26T18:38:10.005Z,35.00
2023-04-26T18:40:43.169Z,34.50
2023-04-26T18:43:14.879Z,37.30
2023-04-26T18:45:46.597Z,37.80
2023-04-26T18:48:18.261Z,38.40
2023-04-26T18:50:51.487Z,40.60
2023-04-26T18:53:23.160Z,43.50
2023-04-26T18:55:55.804Z,42.80
2023-04-26T18:58:27.460Z,45.60
2023-04-26T19:00:59.138Z,43.70
2023-04-26T19:03:30.916Z,46.10
2023-04-26T19:06:07.658Z,47.80
2023-04-26T19:08:39.314Z,48.00
2023-04-26T19:11:11.942Z,47.90
2023-04-26T19:13:43.599Z,49.50
2023-04-26T19:16:15.345Z,51.30
2023-04-26T19:18:47.065Z,48.90
2023-04-26T19:21:20.127Z,48.60
2023-04-26T19:23:51.820Z,50.20
2023-04-26T19:26:23.503Z,51.60
2023-04-26T19:28:55.150Z,51.20
2023-04-26T19:31:26.859Z,52.90
2023-04-26T19:33:58.555Z,54.20
2023-04-26T19:36:31.583Z,57.00
2023-04-26T19:39:03.261Z,59.50
2023-04-26T19:41:34.939Z,61.00
2023-04-26T19:44:06.585Z,59.40
2023-04-26T19:46:38.281Z,57.70
2023-04-26T19:49:09.964Z,57.60
2023-04-26T19:51:42.991Z,60.00
2023-04-26T19:54:14.669Z,58.70
2023-04-26T19:56:46.355Z,63.20
2023-04-26T19:59:18.229Z,62.60
2023-04-26T20:01:51.056Z,61.70
2023-04-26T20:04:24.967Z,59.20
2023-04-26T20:06:58.038Z,61.10
2023-04-26T20:09:29.701Z,64.70
2023-04-26T20:12:01.377Z,63.70
2023-04-26T20:14:33.079Z,64.20
2023-04-26T20:17:04.835Z,66.50
2023-04-26T20:19:36.588Z,67.00
2023-04-26T20:22:09.637Z,71.80
2023-04-26T20:24:41.303Z,67.20
2023-04-26T20:27:13.021Z,72.50
2023-04-26T20:29:46.534Z,70.10
2023-04-26T20:32:18.266Z,72.60
2023-04-26T20:34:49.958Z,69.50
2023-04-26T20:37:22.995Z,71.40
2023-04-26T20:39:54.678Z,76.00
2023-04-26T20:42:26.348Z,73.30
2023-04-26T20:44:59.829Z,74.60
2023-04-26T20:47:33.037Z,72.80
2023-04-26T20:50:05.346Z,72.60
2023-04-26T20:52:38.356Z,71.30
2023-04-26T20:55:10.244Z,70.80
2023-04-26T20:57:41.962Z,71.80
2023-04-26T21:00:14.163Z,72.20
2023-04-26T21:02:45.917Z,73.90
2023-04-26T21:05:17.705Z,73.10
2023-04-26T21:07:50.696Z,74.60
2023-04-26T21:10:22.480Z,71.50
2023-04-26T21:12:54.140Z,73.10
2023-04-26T21:15:26.176Z,73.70
2023-04-26T21:17:57.885Z,77.00
2023-04-26T21:20:29.578Z,75.10
2023-04-26T21:23:02.587Z,75.60
2023-04-26T21:25:34.283Z,78.40
2023-04-26T21:28:05.950Z,78.40
2023-04-26T21:30:37.632Z,83.70
2023-04-26T21:33:09.342Z,82.10
2023-04-26T21:35:41.094Z,81.20
2023-04-26T21:38:14.124Z,72.20
2023-04-26T21:40:45.786Z,76.80
2023-04-26T21:43:17.579Z,80.30
2023-04-26T21:45:49.259Z,74.50
2023-04-26T21:48:20.905Z,69.10
2023-04-26T21:50:52.566Z,71.20
2023-04-26T21:53:25.655Z,68.80
2023-04-26T21:55:57.442Z,75.50
2023-04-26T21:58:29.089Z,78.80
